Terminal Aerodrome Forecast
Issued by NWS

Home | Current Version | Previous Version | Text Only | Print | Product List | Glossary On
Versions: 1 2 3 4 5 6 7 8 9 10 11 12 13 14 15 16 17
000
FTAK31 PANC 290036 AAA
TAFATK
TAF AMD
PATK 290036Z 2901/2924 03008G16KT P6SM SKC
     FM290400 02007KT P6SM SKC
     FM292000 03010G18KT P6SM SKC=

USA.gov is the U.S. government's official web portal to all federal, state and local government web resources and services.